Time,TemperatureF,DewpointF,PressureIn,WindDirection,WindDirectionDegrees,WindSpeedMPH,WindSpeedGustMPH,Humidity,HourlyPrecipIn,Conditions,Clouds,dailyrainin,SoftwareType,DateUTC
2013-01-13 00:05:00,65.7,59.0,29.89,SSE,164,9.0,-999.0,79,-99.99,,,0.00,weatherlink.com 1.10,2013-01-13 06:05:00,
2013-01-13 00:20:00,65.3,59.0,29.89,SSE,157,11.0,-999.0,80,-99.99,,,0.00,weatherlink.com 1.10,2013-01-13 06:20:00,
2013-01-13 00:35:00,65.0,59.0,29.90,SE,142,4.0,-999.0,81,-99.99,,,0.00,weatherlink.com 1.10,2013-01-13 06:35:00,
2013-01-13 00:50:00,64.8,59.0,29.90,South,183,0.0,-999.0,82,-99.99,,,0.00,weatherlink.com 1.10,2013-01-13 06:50:00,
2013-01-13 01:06:00,64.5,59.0,29.89,South,186,5.0,-999.0,83,-99.99,,,0.00,weatherlink.com 1.10,2013-01-13 07:06:00,
2013-01-13 01:20:00,64.2,59.0,29.89,SSE,167,9.0,-999.0,83,-99.99,,,0.00,weatherlink.com 1.10,2013-01-13 07:20:00,
2013-01-13 01:35:00,64.0,59.0,29.88,WSW,240,7.0,-999.0,84,-99.99,,,0.00,weatherlink.com 1.10,2013-01-13 07:35:00,
2013-01-13 01:50:00,63.8,59.0,29.88,South,183,13.0,-999.0,85,-99.99,,,0.00,weatherlink.com 1.10,2013-01-13 07:50:00,
2013-01-13 02:06:00,63.6,59.0,29.88,SSW,212,1.0,-999.0,86,-99.99,,,0.00,weatherlink.com 1.10,2013-01-13 08:06:00,
2013-01-13 02:21:00,63.5,59.0,29.89,SSE,163,11.0,-999.0,86,-99.99,,,0.00,weatherlink.com 1.10,2013-01-13 08:21:00,
2013-01-13 02:36:00,63.6,60.0,29.89,SW,214,6.0,-999.0,87,-99.99,,,0.00,weatherlink.com 1.10,2013-01-13 08:36:00,
2013-01-13 02:51:00,63.8,60.0,29.88,South,187,13.0,-999.0,87,-99.99,,,0.00,weatherlink.com 1.10,2013-01-13 08:51:00,
2013-01-13 03:06:00,63.9,60.0,29.88,South,187,4.0,-999.0,88,-99.99,,,0.00,weatherlink.com 1.10,2013-01-13 09:06:00,
2013-01-13 03:21:00,64.3,60.0,29.87,SSW,196,7.0,-999.0,87,-99.99,,,0.00,weatherlink.com 1.10,2013-01-13 09:21:00,
2013-01-13 03:36:00,64.3,61.0,29.87,ESE,117,3.0,-999.0,88,-99.99,,,0.00,weatherlink.com 1.10,2013-01-13 09:36:00,
2013-01-13 03:51:00,64.4,61.0,29.87,SSW,203,2.0,-999.0,88,-99.99,,,0.00,weatherlink.com 1.10,2013-01-13 09:51:00,
2013-01-13 04:06:00,64.4,61.0,29.87,SSE,166,6.0,-999.0,88,-99.99,,,0.00,weatherlink.com 1.10,2013-01-13 10:06:00,
2013-01-13 04:21:00,64.5,61.0,29.88,SW,224,10.0,-999.0,88,-99.99,,,0.00,weatherlink.com 1.10,2013-01-13 10:21:00,
2013-01-13 04:36:00,64.6,61.0,29.89,South,177,9.0,-999.0,88,-99.99,,,0.00,weatherlink.com 1.10,2013-01-13 10:36:00,
2013-01-13 04:51:00,64.6,61.0,29.90,SSE,166,7.0,-999.0,89,-99.99,,,0.00,weatherlink.com 1.10,2013-01-13 10:51:00,
2013-01-13 05:06:00,64.7,62.0,29.90,SSE,153,3.0,-999.0,89,-99.99,,,0.00,weatherlink.com 1.10,2013-01-13 11:06:00,
2013-01-13 05:21:00,64.9,61.0,29.92,SE,132,5.0,-999.0,88,-99.99,,,0.00,weatherlink.com 1.10,2013-01-13 11:21:00,
2013-01-13 05:36:00,65.1,62.0,29.93,SSE,168,9.0,-999.0,88,-99.99,,,0.00,weatherlink.com 1.10,2013-01-13 11:36:00,
2013-01-13 05:51:00,65.2,62.0,29.93,SE,130,4.0,-999.0,88,-99.99,,,0.00,weatherlink.com 1.10,2013-01-13 11:51:00,
2013-01-13 06:06:00,65.1,62.0,29.94,South,182,12.0,-999.0,88,-99.99,,,0.00,weatherlink.com 1.10,2013-01-13 12:06:00,
2013-01-13 06:21:00,65.0,62.0,29.94,South,175,0.0,-999.0,89,-99.99,,,0.00,weatherlink.com 1.10,2013-01-13 12:21:00,
2013-01-13 06:36:00,65.0,62.0,29.94,South,173,0.0,-999.0,89,-99.99,,,0.00,weatherlink.com 1.10,2013-01-13 12:36:00,
2013-01-13 06:51:00,65.1,62.0,29.95,SSW,196,0.0,-999.0,89,-99.99,,,0.00,weatherlink.com 1.10,2013-01-13 12:51:00,
2013-01-13 07:06:00,65.3,62.0,29.95,SSW,198,8.0,-999.0,89,-99.99,,,0.00,weatherlink.com 1.10,2013-01-13 13:06:00,
2013-01-13 07:21:00,65.3,62.0,29.95,South,184,0.0,-999.0,89,-99.99,,,0.00,weatherlink.com 1.10,2013-01-13 13:21:00,
2013-01-13 07:36:00,65.4,62.0,29.95,SSW,213,3.0,-999.0,89,-99.99,,,0.00,weatherlink.com 1.10,2013-01-13 13:36:00,
2013-01-13 07:51:00,65.4,62.0,29.95,SSE,160,0.0,-999.0,89,-99.99,,,0.00,weatherlink.com 1.10,2013-01-13 13:51:00,
2013-01-13 08:06:00,65.6,62.0,29.95,South,178,0.0,-999.0,89,-99.99,,,0.00,weatherlink.com 1.10,2013-01-13 14:06:00,
2013-01-13 08:36:00,66.0,62.0,29.95,SE,142,6.0,-999.0,87,-99.99,,,0.00,weatherlink.com 1.10,2013-01-13 14:36:00,
2013-01-13 08:51:00,66.2,62.0,29.95,SSE,162,1.0,-999.0,87,-99.99,,,0.00,weatherlink.com 1.10,2013-01-13 14:51:00,
2013-01-13 09:06:00,66.4,62.0,29.96,SE,141,8.0,-999.0,86,-99.99,,,0.00,weatherlink.com 1.10,2013-01-13 15:06:00,
2013-01-13 09:21:00,66.6,62.0,29.96,SSE,155,2.0,-999.0,86,-99.99,,,0.00,weatherlink.com 1.10,2013-01-13 15:21:00,
2013-01-13 09:36:00,66.7,62.0,29.96,SSW,196,7.0,-999.0,86,-99.99,,,0.00,weatherlink.com 1.10,2013-01-13 15:36:00,
2013-01-13 09:51:00,66.9,63.0,29.95,SSW,212,5.0,-999.0,86,-99.99,,,0.00,weatherlink.com 1.10,2013-01-13 15:51:00,
2013-01-13 10:06:00,67.3,63.0,29.95,South,179,0.0,-999.0,86,-99.99,,,0.00,weatherlink.com 1.10,2013-01-13 16:06:00,
2013-01-13 10:23:00,67.5,63.0,29.94,SSW,203,5.0,-999.0,86,-99.99,,,0.00,weatherlink.com 1.10,2013-01-13 16:23:00,
2013-01-13 10:36:00,67.4,63.0,29.94,SE,146,6.0,-999.0,86,-99.99,,,0.00,weatherlink.com 1.10,2013-01-13 16:36:00,
2013-01-13 10:51:00,67.6,63.0,29.93,SSW,205,12.0,-999.0,86,-99.99,,,0.00,weatherlink.com 1.10,2013-01-13 16:51:00,
2013-01-13 11:08:00,67.4,63.0,29.93,South,186,7.0,-999.0,86,-99.99,,,0.00,weatherlink.com 1.10,2013-01-13 17:08:00,
2013-01-13 11:23:00,67.8,64.0,29.92,South,177,6.0,-999.0,86,-99.99,,,0.00,weatherlink.com 1.10,2013-01-13 17:23:00,
2013-01-13 11:36:00,68.3,64.0,29.92,SE,144,8.0,-999.0,85,-99.99,,,0.00,weatherlink.com 1.10,2013-01-13 17:36:00,
2013-01-13 11:51:00,68.6,64.0,29.91,SSW,193,7.0,-999.0,85,-99.99,,,0.00,weatherlink.com 1.10,2013-01-13 17:51:00,
2013-01-13 12:06:00,68.6,64.0,29.90,SSE,160,2.0,-999.0,85,-99.99,,,0.00,weatherlink.com 1.10,2013-01-13 18:06:00,
2013-01-13 12:21:00,69.1,64.0,29.90,South,186,11.0,-999.0,84,-99.99,,,0.00,weatherlink.com 1.10,2013-01-13 18:21:00,
2013-01-13 12:36:00,69.6,64.0,29.90,SW,215,8.0,-999.0,82,-99.99,,,0.00,weatherlink.com 1.10,2013-01-13 18:36:00,
2013-01-13 12:51:00,69.5,64.0,29.89,SSW,211,12.0,-999.0,82,-99.99,,,0.00,weatherlink.com 1.10,2013-01-13 18:51:00,
2013-01-13 13:06:00,68.5,64.0,29.89,SSE,158,10.0,-999.0,86,-99.99,,,0.01,weatherlink.com 1.10,2013-01-13 19:06:00,
2013-01-13 13:22:00,68.8,64.0,29.88,South,173,0.0,-999.0,85,-99.99,,,0.01,weatherlink.com 1.10,2013-01-13 19:22:00,
2013-01-13 13:36:00,69.2,64.0,29.87,South,173,9.0,-999.0,83,-99.99,,,0.01,weatherlink.com 1.10,2013-01-13 19:36:00,
2013-01-13 13:51:00,69.5,64.0,29.86,South,174,5.0,-999.0,82,-99.99,,,0.01,weatherlink.com 1.10,2013-01-13 19:51:00,
2013-01-13 14:06:00,69.7,64.0,29.86,South,184,9.0,-999.0,81,-99.99,,,0.01,weatherlink.com 1.10,2013-01-13 20:06:00,
2013-01-13 14:21:00,69.9,64.0,29.86,WSW,239,4.0,-999.0,80,-99.99,,,0.01,weatherlink.com 1.10,2013-01-13 20:21:00,
2013-01-13 14:36:00,70.0,63.0,29.87,SSW,208,13.0,-999.0,79,-99.99,,,0.01,weatherlink.com 1.10,2013-01-13 20:36:00,
2013-01-13 14:51:00,69.9,64.0,29.87,South,180,9.0,-999.0,80,-99.99,,,0.01,weatherlink.com 1.10,2013-01-13 20:51:00,
2013-01-13 15:06:00,69.6,63.0,29.87,South,179,5.0,-999.0,80,-99.99,,,0.01,weatherlink.com 1.10,2013-01-13 21:06:00,
2013-01-13 15:21:00,69.5,63.0,29.87,SE,134,0.0,-999.0,80,-99.99,,,0.01,weatherlink.com 1.10,2013-01-13 21:21:00,
2013-01-13 15:38:00,69.3,63.0,29.87,SSW,205,4.0,-999.0,81,-99.99,,,0.02,weatherlink.com 1.10,2013-01-13 21:38:00,
2013-01-13 15:51:00,68.3,63.0,29.87,SSW,207,0.0,-999.0,84,-99.99,,,0.03,weatherlink.com 1.10,2013-01-13 21:51:00,
2013-01-13 16:07:00,66.8,64.0,29.88,WSW,248,0.0,-999.0,89,-99.99,,,0.07,weatherlink.com 1.10,2013-01-13 22:07:00,
2013-01-13 16:21:00,66.1,64.0,29.88,WSW,243,0.0,-999.0,91,-99.99,,,0.10,weatherlink.com 1.10,2013-01-13 22:21:00,
2013-01-13 16:36:00,65.5,63.0,29.87,SW,231,0.0,-999.0,92,-99.99,,,0.15,weatherlink.com 1.10,2013-01-13 22:36:00,
2013-01-13 16:51:00,64.8,63.0,29.88,SW,231,0.0,-999.0,94,-99.99,,,0.24,weatherlink.com 1.10,2013-01-13 22:51:00,
2013-01-13 17:06:00,64.6,63.0,29.87,WNW,289,2.0,-999.0,95,-99.99,,,0.37,weatherlink.com 1.10,2013-01-13 23:06:00,
2013-01-13 17:21:00,64.3,63.0,29.88,SW,223,0.0,-999.0,96,-99.99,,,0.41,weatherlink.com 1.10,2013-01-13 23:21:00,
2013-01-13 17:36:00,64.2,63.0,29.89,WSW,246,0.0,-999.0,96,-99.99,,,0.57,weatherlink.com 1.10,2013-01-13 23:36:00,
2013-01-13 17:51:00,64.3,63.0,29.90,West,272,0.0,-999.0,96,-99.99,,,0.85,weatherlink.com 1.10,2013-01-13 23:51:00,
2013-01-13 18:06:00,64.0,63.0,29.93,WNW,292,22.0,-999.0,96,-99.99,,,1.16,weatherlink.com 1.10,2013-01-14 00:06:00,
2013-01-13 18:21:00,62.0,61.0,29.94,WSW,257,4.0,-999.0,95,-99.99,,,1.48,weatherlink.com 1.10,2013-01-14 00:21:00,
2013-01-13 18:36:00,61.5,60.0,29.95,WNW,289,8.0,-999.0,95,-99.99,,,1.58,weatherlink.com 1.10,2013-01-14 00:36:00,
2013-01-13 18:52:00,59.6,58.0,29.97,West,265,2.0,-999.0,93,-99.99,,,1.64,weatherlink.com 1.10,2013-01-14 00:52:00,
2013-01-13 19:06:00,58.7,57.0,29.97,WNW,294,4.0,-999.0,94,-99.99,,,1.73,weatherlink.com 1.10,2013-01-14 01:06:00,
2013-01-13 19:21:00,58.3,56.0,29.96,NW,320,7.0,-999.0,93,-99.99,,,1.75,weatherlink.com 1.10,2013-01-14 01:21:00,
2013-01-13 19:36:00,58.0,56.0,29.98,WNW,302,0.0,-999.0,94,-99.99,,,1.76,weatherlink.com 1.10,2013-01-14 01:36:00,
2013-01-13 19:51:00,57.6,56.0,29.98,WNW,296,2.0,-999.0,93,-99.99,,,1.76,weatherlink.com 1.10,2013-01-14 01:51:00,
2013-01-13 20:06:00,56.5,54.0,29.99,NNW,331,13.0,-999.0,90,-99.99,,,1.76,weatherlink.com 1.10,2013-01-14 02:06:00,
2013-01-13 20:21:00,55.4,53.0,29.99,NNW,330,9.0,-999.0,91,-99.99,,,1.77,weatherlink.com 1.10,2013-01-14 02:21:00,
2013-01-13 20:36:00,54.0,52.0,30.01,NNW,329,11.0,-999.0,92,-99.99,,,1.79,weatherlink.com 1.10,2013-01-14 02:36:00,
2013-01-13 20:51:00,52.8,51.0,30.01,NNW,329,11.0,-999.0,92,-99.99,,,1.80,weatherlink.com 1.10,2013-01-14 02:51:00,
2013-01-13 21:06:00,51.9,50.0,30.01,NW,324,12.0,-999.0,92,-99.99,,,1.80,weatherlink.com 1.10,2013-01-14 03:06:00,
2013-01-13 21:21:00,51.2,49.0,30.02,NW,320,12.0,-999.0,92,-99.99,,,1.80,weatherlink.com 1.10,2013-01-14 03:21:00,
2013-01-13 21:37:00,50.3,48.0,30.02,NW,314,12.0,-999.0,92,-99.99,,,1.80,weatherlink.com 1.10,2013-01-14 03:37:00,
2013-01-13 21:51:00,49.6,47.0,30.03,NW,325,11.0,-999.0,92,-99.99,,,1.80,weatherlink.com 1.10,2013-01-14 03:51:00,
2013-01-13 22:06:00,48.3,46.0,30.04,NNW,341,13.0,-999.0,91,-99.99,,,1.80,weatherlink.com 1.10,2013-01-14 04:06:00,
2013-01-13 22:21:00,47.0,44.0,30.05,NNW,327,10.0,-999.0,90,-99.99,,,1.80,weatherlink.com 1.10,2013-01-14 04:21:00,
2013-01-13 22:38:00,46.5,44.0,30.06,North,5,10.0,-999.0,90,-99.99,,,1.80,weatherlink.com 1.10,2013-01-14 04:38:00,
2013-01-13 22:51:00,45.7,43.0,30.07,NNW,330,9.0,-999.0,89,-99.99,,,1.80,weatherlink.com 1.10,2013-01-14 04:51:00,
2013-01-13 23:06:00,45.1,42.0,30.07,North,355,5.0,-999.0,90,-99.99,,,1.80,weatherlink.com 1.10,2013-01-14 05:06:00,
2013-01-13 23:21:00,44.6,42.0,30.07,NNE,19,10.0,-999.0,90,-99.99,,,1.80,weatherlink.com 1.10,2013-01-14 05:21:00,
2013-01-13 23:36:00,43.5,41.0,30.07,North,355,4.0,-999.0,91,-99.99,,,1.80,weatherlink.com 1.10,2013-01-14 05:36:00,
2013-01-13 23:51:00,42.9,41.0,30.07,NNW,348,9.0,-999.0,92,-99.99,,,1.81,weatherlink.com 1.10,2013-01-14 05:51:00,